Time;durP1;ratioP1;P1;durP2;ratioP2;P2;SDS_P1;SDS_P2;PMS_P1;PMS_P2;Temp;Humidity;BMP_temperature;BMP_pressure;BME280_temperature;BME280_humidity;BME280_pressure;Samples;Min_cycle;Max_cycle;Signal;HPM_P1;HPM_P2
2023/03/05 00:02:15;;;;;;;13.90;6.30;;;;;;;4.15;58.91;98668.77;235119;1196;138777;-71
2023/03/05 00:07:18;;;;;;;17.60;7.50;;;;;;;4.13;58.61;98666.77;235078;1196;139031;-72
2023/03/05 00:12:22;;;;;;;10.80;5.60;;;;;;;4.12;58.76;98664.50;235074;1197;139306;-72
2023/03/05 00:17:25;;;;;;;13.00;5.30;;;;;;;4.14;58.24;98667.42;235234;1195;139209;-72
2023/03/05 00:22:29;;;;;;;13.80;6.20;;;;;;;4.13;57.78;98663.77;235329;1196;138762;-71
2023/03/05 00:27:32;;;;;;;12.10;6.20;;;;;;;4.14;57.83;98656.01;235058;1196;139327;-71
2023/03/05 00:32:35;;;;;;;10.70;5.10;;;;;;;4.16;58.15;98662.75;234936;1196;139215;-71
2023/03/05 00:37:39;;;;;;;11.90;5.40;;;;;;;4.16;56.80;98650.47;235134;1196;139133;-71
2023/03/05 00:42:42;;;;;;;14.80;5.90;;;;;;;4.15;56.50;98647.36;235143;1195;139078;-72
2023/03/05 00:47:45;;;;;;;9.40;5.30;;;;;;;4.14;56.27;98640.54;233012;1193;139018;-70
2023/03/05 00:52:49;;;;;;;13.50;5.80;;;;;;;4.12;56.23;98635.90;235098;1196;138951;-70
2023/03/05 00:57:52;;;;;;;9.90;5.40;;;;;;;4.10;55.64;98632.48;234931;1196;138898;-70
2023/03/05 01:02:55;;;;;;;9.30;4.70;;;;;;;4.08;54.97;98628.73;235010;1197;138765;-69
2023/03/05 01:07:59;;;;;;;9.10;4.70;;;;;;;4.08;53.80;98632.21;235101;1196;139201;-70
2023/03/05 01:13:03;;;;;;;10.10;4.70;;;;;;;4.08;52.94;98628.91;234829;1196;138542;-72
2023/03/05 01:18:07;;;;;;;8.40;4.10;;;;;;;4.03;52.35;98625.73;235231;1194;139220;-70
2023/03/05 01:23:10;;;;;;;8.50;4.00;;;;;;;4.05;51.90;98623.89;235139;1194;138427;-71
2023/03/05 01:28:15;;;;;;;10.10;3.90;;;;;;;4.02;51.36;98623.65;235017;1196;139363;-70
2023/03/05 01:33:18;;;;;;;9.30;4.00;;;;;;;3.97;51.33;98629.34;234891;1193;139803;-71
2023/03/05 01:38:22;;;;;;;8.80;4.00;;;;;;;3.95;50.61;98630.65;231733;1198;138990;-70
2023/03/05 01:43:29;;;;;;;7.60;3.30;;;;;;;3.96;50.05;98629.91;235553;1193;139264;-70
2023/03/05 01:48:32;;;;;;;6.60;3.00;;;;;;;4.02;49.24;98629.14;235528;1193;138760;-70
2023/03/05 01:53:36;;;;;;;6.40;2.80;;;;;;;3.94;48.36;98625.79;235534;1193;138583;-70
2023/03/05 01:58:40;;;;;;;6.10;2.60;;;;;;;3.81;47.83;98628.77;235483;1193;138549;-69
2023/03/05 02:03:45;;;;;;;8.10;2.70;;;;;;;3.77;47.02;98628.40;235281;1196;138330;-70
2023/03/05 02:08:48;;;;;;;6.80;2.50;;;;;;;3.76;46.43;98621.05;235380;1196;138801;-70
2023/03/05 02:13:52;;;;;;;4.40;2.40;;;;;;;3.77;45.56;98622.77;235267;1193;138280;-69
2023/03/05 02:18:55;;;;;;;6.60;2.00;;;;;;;3.78;45.24;98619.92;235328;1193;139333;-70
2023/03/05 02:23:59;;;;;;;4.70;2.10;;;;;;;3.75;45.14;98621.82;235251;1196;139280;-70
2023/03/05 02:29:04;;;;;;;6.10;2.10;;;;;;;3.74;44.99;98618.70;235466;1195;138845;-70
2023/03/05 02:34:07;;;;;;;5.60;2.60;;;;;;;3.72;44.74;98615.11;235302;1196;138541;-70
2023/03/05 02:39:11;;;;;;;6.20;2.80;;;;;;;3.75;44.62;98609.02;235320;1196;138600;-70
2023/03/05 02:44:14;;;;;;;5.50;2.80;;;;;;;3.73;44.27;98610.48;235299;1192;138661;-70
2023/03/05 02:49:18;;;;;;;5.00;2.30;;;;;;;3.71;44.62;98601.98;235089;1193;138639;-69
2023/03/05 02:54:21;;;;;;;5.50;2.40;;;;;;;3.68;43.69;98595.61;235366;1193;138763;-69
2023/03/05 02:59:25;;;;;;;6.30;2.30;;;;;;;3.62;44.78;98592.39;235274;1193;138473;-69
2023/03/05 03:04:28;;;;;;;6.10;1.90;;;;;;;3.60;43.87;98591.05;235196;1193;138566;-71
2023/03/05 03:09:33;;;;;;;3.50;1.80;;;;;;;3.59;43.69;98592.69;234668;1193;138457;-69
2023/03/05 03:14:40;;;;;;;7.50;2.00;;;;;;;3.62;42.78;98592.04;235342;1193;138400;-69
2023/03/05 03:19:43;;;;;;;;;;;;;;;3.59;42.42;98581.77;235247;1196;140757;-69
2023/03/05 03:24:46;;;;;;;5.10;2.10;;;;;;;3.57;43.09;98588.53;235427;1193;124772;-70
2023/03/05 03:29:50;;;;;;;3.10;1.50;;;;;;;3.55;43.01;98594.76;235645;1192;138323;-69
2023/03/05 03:34:53;;;;;;;5.90;2.40;;;;;;;3.55;43.52;98590.38;235640;1193;138633;-70
2023/03/05 03:39:56;;;;;;;2.70;1.60;;;;;;;3.56;43.44;98582.06;235494;1193;138344;-70
2023/03/05 03:45:02;;;;;;;4.90;1.90;;;;;;;3.59;42.96;98575.83;235313;1193;138506;-69
2023/03/05 03:50:05;;;;;;;5.30;2.20;;;;;;;3.61;42.60;98568.02;235451;1192;139432;-70
2023/03/05 03:55:09;;;;;;;3.90;1.80;;;;;;;3.60;42.46;98566.34;235391;1195;138969;-69
2023/03/05 04:00:13;;;;;;;3.20;1.50;;;;;;;3.55;42.12;98564.92;235370;1192;138569;-69
2023/03/05 04:05:17;;;;;;;4.10;1.70;;;;;;;3.53;41.58;98561.67;235764;1192;139026;-70
2023/03/05 04:10:20;;;;;;;5.00;1.60;;;;;;;3.51;41.57;98555.79;232338;1193;138963;-72
2023/03/05 04:15:24;;;;;;;4.30;1.60;;;;;;;3.49;41.44;98552.38;235575;1192;138660;-69
2023/03/05 04:20:27;;;;;;;3.30;1.60;;;;;;;3.53;41.59;98552.20;235320;1193;138668;-69
2023/03/05 04:25:30;;;;;;;5.90;1.80;;;;;;;3.53;41.89;98546.43;235324;1193;139011;-70
2023/03/05 04:30:33;;;;;;;6.90;1.90;;;;;;;3.43;42.21;98543.85;235417;1193;138547;-70
2023/03/05 04:35:37;;;;;;;3.70;1.40;;;;;;;3.37;42.63;98529.57;235444;1193;139244;-70
2023/03/05 04:40:40;;;;;;;3.00;1.70;;;;;;;3.35;42.84;98528.60;235298;1196;139022;-70
2023/03/05 04:45:43;;;;;;;5.00;1.90;;;;;;;3.38;42.85;98523.73;235474;1193;139104;-70
2023/03/05 04:50:47;;;;;;;5.80;2.50;;;;;;;3.37;42.59;98519.94;235382;1193;138319;-70
2023/03/05 04:55:54;;;;;;;5.50;1.90;;;;;;;3.33;42.97;98527.97;235363;1193;139646;-70
2023/03/05 05:01:02;;;;;;;4.70;2.40;;;;;;;3.29;43.71;98534.63;235304;1193;138915;-69
2023/03/05 05:06:05;;;;;;;5.30;2.30;;;;;;;3.27;43.99;98525.95;235360;1192;139448;-70
2023/03/05 05:11:12;;;;;;;4.90;2.40;;;;;;;3.28;44.26;98511.52;235645;1192;138327;-70
2023/03/05 05:16:16;;;;;;;6.70;2.80;;;;;;;3.26;44.69;98505.80;233315;1192;139178;-73
2023/03/05 05:21:19;;;;;;;8.50;3.10;;;;;;;3.25;44.95;98504.29;233694;1193;138987;-71
2023/03/05 05:26:22;;;;;;;35.60;20.40;;;;;;;3.31;45.57;98499.81;235525;1192;138957;-71
2023/03/05 05:31:26;;;;;;;10.00;6.10;;;;;;;3.37;46.04;98505.01;235447;1193;139576;-70
2023/03/05 05:36:29;;;;;;;8.00;4.10;;;;;;;3.40;46.65;98503.98;235385;1193;138588;-71
2023/03/05 05:41:32;;;;;;;9.90;4.30;;;;;;;3.42;47.08;98500.79;235384;1193;138581;-71
2023/03/05 05:46:35;;;;;;;10.00;4.10;;;;;;;3.36;48.14;98499.95;235757;1192;139066;-71
2023/03/05 05:51:40;;;;;;;150.50;89.00;;;;;;;3.35;49.08;98498.80;235565;1193;139129;-71
2023/03/05 05:56:43;;;;;;;12.40;5.50;;;;;;;3.42;49.75;98498.69;235323;1194;139090;-72
2023/03/05 06:01:46;;;;;;;9.00;5.00;;;;;;;3.36;50.30;98509.28;235474;1192;139201;-72
2023/03/05 06:06:50;;;;;;;11.00;5.70;;;;;;;3.29;51.20;98514.98;235324;1193;138210;-72
2023/03/05 06:11:53;;;;;;;13.70;6.30;;;;;;;3.21;52.53;98532.13;235378;1193;138747;-71
2023/03/05 06:16:56;;;;;;;16.40;7.90;;;;;;;3.18;54.04;98544.35;235412;1193;138465;-71
2023/03/05 06:22:00;;;;;;;15.20;7.60;;;;;;;3.26;54.80;98544.53;235466;1192;138473;-73
2023/03/05 06:27:04;;;;;;;13.60;7.30;;;;;;;3.26;55.71;98537.39;235585;1192;138399;-71
2023/03/05 06:32:08;;;;;;;16.50;9.20;;;;;;;3.24;56.21;98528.88;235457;1193;139812;-71
2023/03/05 06:37:11;;;;;;;17.30;8.10;;;;;;;3.43;57.23;98516.53;235291;1192;138541;-72
2023/03/05 06:42:16;;;;;;;16.50;7.50;;;;;;;3.33;56.60;98506.91;235653;1192;138915;-70
2023/03/05 06:47:19;;;;;;;15.20;8.10;;;;;;;3.20;56.79;98500.64;235649;1192;138437;-70
2023/03/05 06:52:23;;;;;;;15.00;7.70;;;;;;;3.16;56.81;98497.12;235513;1193;138867;-70
2023/03/05 06:57:27;;;;;;;13.00;7.30;;;;;;;3.18;56.92;98498.07;235607;1192;139169;-71
2023/03/05 07:02:30;;;;;;;15.10;8.30;;;;;;;3.18;56.98;98500.36;235535;1193;139214;-71
2023/03/05 07:07:34;;;;;;;16.20;8.50;;;;;;;3.18;56.83;98502.28;235471;1192;139226;-71
2023/03/05 07:12:38;;;;;;;15.60;7.90;;;;;;;3.16;56.69;98502.02;235547;1192;138850;-71
2023/03/05 07:17:41;;;;;;;16.00;8.70;;;;;;;3.19;56.62;98494.00;235482;1193;139381;-70
2023/03/05 07:22:45;;;;;;;13.90;8.00;;;;;;;3.25;55.95;98490.60;235632;1193;138406;-70
2023/03/05 07:27:49;;;;;;;72.90;47.60;;;;;;;3.32;55.99;98492.26;235387;1193;139076;-72
2023/03/05 07:32:53;;;;;;;14.80;8.90;;;;;;;3.41;56.03;98489.04;235477;1193;139550;-69
2023/03/05 07:37:56;;;;;;;14.90;8.20;;;;;;;3.46;55.64;98488.84;235650;1192;138665;-68
2023/03/05 07:42:59;;;;;;;20.10;9.40;;;;;;;3.43;55.79;98479.17;235374;1193;139175;-72
2023/03/05 07:48:04;;;;;;;16.60;9.20;;;;;;;3.44;56.21;98475.95;235235;1193;139793;-71
2023/03/05 07:53:08;;;;;;;16.90;10.00;;;;;;;3.45;56.69;98471.17;235298;1193;138690;-70
2023/03/05 07:58:13;;;;;;;19.40;8.80;;;;;;;3.46;56.76;98467.65;235413;1193;139123;-71
2023/03/05 08:03:17;;;;;;;17.40;9.50;;;;;;;3.40;56.89;98462.44;235287;1193;138981;-71
2023/03/05 08:08:20;;;;;;;17.70;9.10;;;;;;;3.42;57.40;98457.65;234962;1193;140317;-71
2023/03/05 08:13:24;;;;;;;15.80;9.40;;;;;;;3.46;57.62;98453.27;232109;1193;138612;-72
2023/03/05 08:18:28;;;;;;;18.40;9.40;;;;;;;3.46;57.72;98449.05;235278;1193;139068;-71
2023/03/05 08:23:33;;;;;;;18.80;9.10;;;;;;;3.46;58.18;98438.18;235135;1193;139415;-72
2023/03/05 08:28:36;;;;;;;14.70;9.10;;;;;;;3.50;58.43;98437.48;235289;1195;138479;-72
2023/03/05 08:33:40;;;;;;;20.00;11.50;;;;;;;3.50;58.90;98435.36;234076;1195;138840;-71
2023/03/05 08:38:45;;;;;;;18.60;10.60;;;;;;;3.45;59.33;98443.48;234961;1193;139153;-73
2023/03/05 08:43:48;;;;;;;18.90;11.70;;;;;;;3.39;59.69;98440.59;235343;1196;138751;-72
2023/03/05 08:48:52;;;;;;;30.10;19.70;;;;;;;3.43;59.74;98440.22;234628;1193;139809;-80
2023/03/05 08:53:58;;;;;;;17.00;10.50;;;;;;;3.51;59.67;98437.80;235195;1193;139402;-72
2023/03/05 08:59:03;;;;;;;13.50;8.80;;;;;;;3.52;59.18;98439.66;235817;1192;140164;-72
2023/03/05 09:04:06;;;;;;;15.30;9.10;;;;;;;3.53;59.22;98430.68;235381;1196;138659;-71
2023/03/05 09:09:42;;;;;;;16.00;8.80;;;;;;;3.59;58.63;98428.85;235347;1193;139827;-74
2023/03/05 09:14:46;;;;;;;15.70;9.50;;;;;;;3.66;58.25;98425.75;233503;1193;138497;-76
2023/03/05 09:19:49;;;;;;;14.30;9.10;;;;;;;3.66;58.75;98417.66;233575;1193;138689;-70
2023/03/05 09:24:53;;;;;;;25.20;16.40;;;;;;;3.73;58.68;98418.05;233878;1196;139378;-64
2023/03/05 09:29:56;;;;;;;15.70;10.80;;;;;;;3.86;58.48;98414.34;235296;1193;140520;-70
2023/03/05 09:34:59;;;;;;;15.80;10.30;;;;;;;3.90;58.22;98411.53;235663;1192;139053;-71
2023/03/05 09:40:04;;;;;;;18.10;11.00;;;;;;;3.90;58.15;98407.13;235351;1193;139978;-72
2023/03/05 09:45:07;;;;;;;17.40;9.80;;;;;;;3.94;58.74;98396.57;235469;1192;138981;-70
2023/03/05 09:50:24;;;;;;;18.90;11.90;;;;;;;4.06;58.25;98391.32;235331;1192;142106;-71
2023/03/05 09:55:39;;;;;;;18.40;12.60;;;;;;;4.17;57.82;98384.45;235561;1193;139961;-71
2023/03/05 10:00:46;;;;;;;19.20;12.90;;;;;;;4.27;57.74;98373.44;235559;1192;139200;-70
2023/03/05 10:05:58;;;;;;;21.70;14.30;;;;;;;4.44;57.37;98371.06;235516;1193;140208;-70
2023/03/05 10:11:11;;;;;;;22.20;13.90;;;;;;;4.50;57.07;98368.31;235724;1192;139007;-70
2023/03/05 10:16:32;;;;;;;28.10;14.60;;;;;;;4.48;57.42;98358.92;235247;1193;138615;-70
2023/03/05 10:21:51;;;;;;;25.20;13.50;;;;;;;4.51;57.62;98356.85;235625;1192;138884;-70
2023/03/05 10:27:13;;;;;;;22.30;13.60;;;;;;;4.48;57.76;98352.08;235744;1192;138945;-70
2023/03/05 10:32:31;;;;;;;92.10;51.60;;;;;;;4.48;58.22;98342.77;235231;1194;141105;-69
2023/03/05 10:38:08;;;;;;;24.70;13.80;;;;;;;4.56;58.01;98335.91;235389;1193;140054;-69
2023/03/05 10:44:03;;;;;;;21.50;12.10;;;;;;;4.71;57.86;98326.02;235356;1193;138689;-68
2023/03/05 10:49:18;;;;;;;21.60;10.80;;;;;;;4.80;57.66;98326.41;235100;1193;139138;-69
2023/03/05 10:54:33;;;;;;;17.90;11.00;;;;;;;4.82;57.16;98322.48;235509;1193;139233;-68
2023/03/05 10:59:36;;;;;;;16.40;10.50;;;;;;;4.78;57.32;98327.46;235489;1193;139415;-69
2023/03/05 11:04:39;;;;;;;19.70;11.10;;;;;;;4.74;57.43;98319.91;235764;1193;139430;-69
2023/03/05 11:10:06;;;;;;;58.60;37.10;;;;;;;4.73;56.94;98318.36;235344;1192;138839;-69
2023/03/05 11:15:09;;;;;;;24.10;13.20;;;;;;;4.75;57.40;98310.35;235662;1193;139182;-69
2023/03/05 11:20:27;;;;;;;23.80;12.10;;;;;;;4.67;57.21;98302.15;235588;1193;139288;-68
2023/03/05 11:25:35;;;;;;;23.00;12.70;;;;;;;4.58;58.69;98300.99;233429;1193;139375;-68
2023/03/05 11:30:38;;;;;;;21.50;13.30;;;;;;;4.46;60.02;98299.16;231212;1196;138837;-69
2023/03/05 11:35:43;;;;;;;22.00;13.40;;;;;;;4.33;60.84;98300.52;234527;1195;139497;-68
2023/03/05 11:40:48;;;;;;;23.10;13.70;;;;;;;4.25;61.82;98305.63;234337;1195;139588;-70
2023/03/05 11:45:58;;;;;;;15.60;9.80;;;;;;;4.08;62.74;98309.96;235483;1193;141720;-68
2023/03/05 11:51:12;;;;;;;16.10;10.40;;;;;;;3.96;62.32;98308.04;235412;1196;138525;-69
2023/03/05 11:56:45;;;;;;;18.00;10.50;;;;;;;3.91;62.15;98295.45;235613;1192;140057;-69
2023/03/05 12:01:52;;;;;;;130.60;74.00;;;;;;;3.82;61.66;98290.98;235500;1193;138649;-69
2023/03/05 12:07:03;;;;;;;14.30;9.10;;;;;;;3.90;60.53;98277.46;234067;1193;140046;-71
2023/03/05 12:12:45;;;;;;;12.00;6.50;;;;;;;3.78;59.38;98272.38;235576;1196;140121;-69
2023/03/05 12:18:08;;;;;;;12.40;6.20;;;;;;;3.84;59.20;98273.70;235508;1193;138701;-69
2023/03/05 12:23:18;;;;;;;13.20;7.40;;;;;;;3.89;59.29;98274.49;234811;1194;138885;-69
2023/03/05 12:28:27;;;;;;;12.00;7.10;;;;;;;3.94;59.32;98274.09;235640;1195;139198;-70
2023/03/05 12:33:49;;;;;;;13.10;6.40;;;;;;;3.80;59.70;98270.00;235462;1195;139105;-70
2023/03/05 12:38:54;;;;;;;13.70;6.50;;;;;;;3.73;59.86;98264.21;235421;1192;138507;-70
2023/03/05 12:44:03;;;;;;;11.80;6.10;;;;;;;3.77;59.80;98261.05;232664;1193;138792;-67
2023/03/05 12:49:19;;;;;;;11.40;5.50;;;;;;;3.82;59.98;98254.98;233596;1196;139671;-69
2023/03/05 12:54:28;;;;;;;11.20;6.00;;;;;;;3.78;59.74;98248.71;235269;1193;139923;-68
2023/03/05 12:59:41;;;;;;;10.60;5.70;;;;;;;3.70;60.02;98239.42;235321;1192;139289;-70
2023/03/05 13:04:46;;;;;;;11.60;6.20;;;;;;;3.73;60.39;98238.95;235646;1192;141255;-67
2023/03/05 13:09:57;;;;;;;14.20;6.40;;;;;;;3.79;59.99;98237.94;233164;1193;139898;-68
2023/03/05 13:15:12;;;;;;;12.20;5.90;;;;;;;3.98;59.67;98240.57;235297;1193;138732;-70
2023/03/05 13:20:24;;;;;;;12.50;6.40;;;;;;;4.13;60.34;98238.43;235397;1196;138586;-70
2023/03/05 13:25:28;;;;;;;33.30;21.00;;;;;;;4.25;58.62;98237.13;235448;1195;139151;-70
2023/03/05 13:30:31;;;;;;;13.40;7.20;;;;;;;4.32;58.17;98232.41;235240;1193;138872;-69
2023/03/05 13:35:44;;;;;;;12.30;6.10;;;;;;;4.28;57.27;98232.41;235469;1193;139668;-70
2023/03/05 13:41:26;;;;;;;10.20;5.60;;;;;;;4.22;57.47;98227.61;235437;1193;138745;-70
2023/03/05 13:46:39;;;;;;;17.80;5.20;;;;;;;4.27;57.14;98224.20;235467;1196;139548;-69
2023/03/05 13:51:44;;;;;;;11.50;5.40;;;;;;;4.44;55.99;98216.88;235325;1193;138751;-69
2023/03/05 13:56:49;;;;;;;9.80;5.40;;;;;;;4.59;55.67;98212.77;235313;1194;141526;-70
2023/03/05 14:01:53;;;;;;;14.70;6.20;;;;;;;4.66;55.53;98209.05;233956;1196;138844;-70
2023/03/05 14:07:06;;;;;;;14.40;6.20;;;;;;;4.79;55.37;98208.44;234828;1193;138618;-69
2023/03/05 14:12:34;;;;;;;19.50;6.80;;;;;;;4.81;55.65;98205.88;235346;1196;139669;-70
2023/03/05 14:17:42;;;;;;;33.30;16.90;;;;;;;4.82;55.50;98199.48;235196;1197;138897;-78
2023/03/05 14:22:48;;;;;;;15.10;7.40;;;;;;;4.85;55.28;98197.21;235264;1193;139041;-73
2023/03/05 14:27:51;;;;;;;15.40;6.40;;;;;;;4.84;54.57;98195.86;235429;1192;139773;-72
2023/03/05 14:32:57;;;;;;;9.80;4.80;;;;;;;4.78;53.00;98189.48;235492;1196;140413;-73
2023/03/05 14:38:01;;;;;;;8.40;3.70;;;;;;;4.74;51.97;98189.30;235356;1196;139186;-72
2023/03/05 14:43:08;;;;;;;7.90;3.70;;;;;;;4.64;48.51;98190.77;235191;1194;138524;-72
2023/03/05 14:48:14;;;;;;;8.50;3.40;;;;;;;4.58;48.80;98179.98;235147;1194;138982;-72
2023/03/05 14:53:34;;;;;;;7.70;3.70;;;;;;;4.64;48.67;98176.89;235391;1193;139911;-71
2023/03/05 14:58:40;;;;;;;5.40;3.30;;;;;;;4.63;47.36;98189.92;235321;1193;139808;-75
2023/03/05 15:03:43;;;;;;;;;;;;;;;4.49;47.91;98192.55;235273;1196;139727;-72
2023/03/05 15:08:47;;;;;;;7.00;3.60;;;;;;;4.43;48.03;98197.58;235290;1199;125455;-71
2023/03/05 15:13:50;;;;;;;6.60;3.40;;;;;;;4.27;48.19;98195.45;235128;1197;139311;-71
2023/03/05 15:18:53;;;;;;;9.30;3.70;;;;;;;4.20;49.12;98191.77;235143;1193;138686;-72
2023/03/05 15:23:57;;;;;;;10.80;3.80;;;;;;;4.18;50.14;98188.68;234999;1196;139496;-72
2023/03/05 15:29:01;;;;;;;48.60;27.90;;;;;;;4.18;50.89;98186.42;235524;1196;139378;-73
2023/03/05 15:34:05;;;;;;;8.40;3.20;;;;;;;4.19;51.23;98184.59;235237;1193;139241;-72
2023/03/05 15:39:09;;;;;;;10.60;3.40;;;;;;;4.14;51.68;98183.95;230620;1193;138608;-74
2023/03/05 15:44:12;;;;;;;9.10;3.30;;;;;;;4.11;51.82;98179.55;234446;1196;139657;-71
2023/03/05 15:49:15;;;;;;;7.90;3.70;;;;;;;4.13;52.05;98171.38;231434;1193;139279;-70
2023/03/05 15:54:19;;;;;;;8.40;3.40;;;;;;;4.14;52.24;98166.95;235134;1197;139774;-72
2023/03/05 15:59:22;;;;;;;7.80;3.40;;;;;;;4.18;52.49;98162.38;235434;1196;138738;-73
2023/03/05 16:04:27;;;;;;;9.50;3.50;;;;;;;4.23;51.91;98169.33;235183;1193;138450;-72
2023/03/05 16:09:36;;;;;;;8.20;3.70;;;;;;;4.24;51.85;98165.74;231583;1198;139823;-72
2023/03/05 16:14:40;;;;;;;7.90;3.70;;;;;;;4.31;51.39;98169.96;235433;1196;138721;-71
2023/03/05 16:19:47;;;;;;;13.20;4.70;;;;;;;4.34;51.19;98168.26;235103;1193;138669;-72
2023/03/05 16:24:50;;;;;;;11.40;4.00;;;;;;;4.39;51.01;98168.85;235007;1196;140199;-71
2023/03/05 16:29:54;;;;;;;12.20;4.30;;;;;;;4.38;51.12;98173.79;235242;1193;140384;-72
2023/03/05 16:34:58;;;;;;;9.00;4.20;;;;;;;4.34;51.17;98169.79;235328;1194;139451;-71
2023/03/05 16:40:03;;;;;;;7.50;3.80;;;;;;;4.29;51.26;98162.67;235280;1197;138333;-71
2023/03/05 16:45:08;;;;;;;7.70;3.90;;;;;;;4.25;51.40;98168.67;235360;1193;139817;-70
2023/03/05 16:50:12;;;;;;;7.10;3.40;;;;;;;4.24;51.90;98174.34;235265;1193;139063;-71
2023/03/05 16:55:15;;;;;;;7.10;3.50;;;;;;;4.16;52.02;98174.59;235224;1193;139196;-70
2023/03/05 17:00:20;;;;;;;7.30;3.30;;;;;;;4.11;52.74;98175.91;235248;1193;138663;-71
2023/03/05 17:05:27;;;;;;;6.70;3.80;;;;;;;3.97;53.55;98173.75;234550;1196;138321;-72
2023/03/05 17:10:31;;;;;;;9.70;3.70;;;;;;;3.92;54.13;98178.92;235257;1193;139579;-71
2023/03/05 17:15:35;;;;;;;7.30;3.50;;;;;;;3.87;54.80;98180.05;235376;1193;140264;-70
2023/03/05 17:20:39;;;;;;;7.10;3.60;;;;;;;3.76;55.59;98184.42;235355;1193;138600;-70
2023/03/05 17:25:43;;;;;;;7.00;3.60;;;;;;;3.70;55.79;98198.78;235187;1193;139201;-68
2023/03/05 17:30:46;;;;;;;57.70;33.70;;;;;;;3.72;56.84;98203.91;235213;1196;138660;-68
2023/03/05 17:35:50;;;;;;;6.10;4.10;;;;;;;3.69;58.24;98213.18;234535;1198;140158;-72
2023/03/05 17:40:53;;;;;;;8.10;4.00;;;;;;;3.61;58.49;98210.79;233912;1197;140116;-68
2023/03/05 17:45:58;;;;;;;7.10;4.20;;;;;;;3.56;59.45;98211.69;235391;1193;138503;-70
2023/03/05 17:51:02;;;;;;;8.90;4.80;;;;;;;3.48;60.08;98215.38;235559;1192;139624;-69
2023/03/05 17:56:10;;;;;;;9.60;4.40;;;;;;;3.36;61.63;98219.98;235579;1195;138494;-68
2023/03/05 18:01:29;;;;;;;7.80;4.10;;;;;;;3.26;61.94;98224.11;235498;1193;139237;-68
2023/03/05 18:06:32;;;;;;;7.30;3.90;;;;;;;3.17;62.75;98216.14;235383;1193;138473;-68
2023/03/05 18:11:36;;;;;;;7.30;4.50;;;;;;;3.15;63.14;98214.27;235210;1193;138324;-68
2023/03/05 18:16:39;;;;;;;9.70;4.60;;;;;;;3.08;63.67;98217.91;235275;1197;138542;-69
2023/03/05 18:21:43;;;;;;;8.60;4.80;;;;;;;3.12;63.82;98220.54;235091;1199;139081;-70
2023/03/05 18:26:46;;;;;;;8.80;5.00;;;;;;;3.22;63.83;98223.06;235419;1193;140263;-70
2023/03/05 18:31:49;;;;;;;9.70;6.00;;;;;;;3.31;63.94;98225.31;235462;1196;139086;-71
2023/03/05 18:36:53;;;;;;;11.20;6.50;;;;;;;3.43;63.44;98230.71;235470;1192;138869;-71
2023/03/05 18:41:56;;;;;;;11.00;6.80;;;;;;;3.41;63.38;98229.23;235204;1193;140270;-70
2023/03/05 18:47:00;;;;;;;9.70;5.70;;;;;;;3.35;63.19;98222.51;235380;1196;139076;-70
2023/03/05 18:52:03;;;;;;;9.70;5.90;;;;;;;3.34;62.95;98214.48;235443;1193;140535;-71
2023/03/05 18:57:06;;;;;;;11.60;6.10;;;;;;;3.30;62.84;98210.42;235322;1193;138404;-70
2023/03/05 19:02:14;;;;;;;12.10;7.40;;;;;;;3.38;62.85;98207.30;235441;1193;140274;-70
2023/03/05 19:07:18;;;;;;;12.30;7.50;;;;;;;3.41;62.75;98204.50;235412;1192;138914;-71
2023/03/05 19:12:26;;;;;;;9.30;7.30;;;;;;;3.38;63.02;98206.94;235220;1193;140077;-70
2023/03/05 19:17:31;;;;;;;11.70;7.90;;;;;;;3.33;63.08;98204.70;235226;1193;139276;-70
2023/03/05 19:22:34;;;;;;;9.80;7.40;;;;;;;3.30;63.19;98213.25;235352;1193;139438;-70
2023/03/05 19:27:38;;;;;;;11.40;8.20;;;;;;;3.23;63.23;98217.27;235268;1196;140463;-63
2023/03/05 19:32:42;;;;;;;68.80;45.90;;;;;;;3.21;64.17;98212.27;235467;1196;138780;-70
2023/03/05 19:37:45;;;;;;;16.50;10.10;;;;;;;3.33;64.94;98213.84;235363;1193;138623;-69
2023/03/05 19:42:48;;;;;;;17.00;8.30;;;;;;;3.35;63.79;98217.27;235367;1192;139726;-69
2023/03/05 19:47:52;;;;;;;14.60;8.80;;;;;;;3.31;63.77;98217.95;235261;1193;138562;-71
2023/03/05 19:52:55;;;;;;;11.70;8.60;;;;;;;3.29;63.88;98222.05;235341;1194;139484;-69
2023/03/05 19:57:58;;;;;;;13.90;9.10;;;;;;;3.33;63.70;98222.05;233829;1192;139019;-70
2023/03/05 20:03:01;;;;;;;13.50;8.70;;;;;;;3.38;63.42;98220.45;235478;1193;138615;-70
2023/03/05 20:08:05;;;;;;;13.60;9.50;;;;;;;3.38;63.07;98218.66;235285;1193;139168;-70
2023/03/05 20:13:08;;;;;;;11.90;8.10;;;;;;;3.42;62.50;98221.82;235192;1192;138715;-70
2023/03/05 20:18:12;;;;;;;15.10;9.20;;;;;;;3.36;61.90;98212.63;235518;1196;138862;-70
2023/03/05 20:23:15;;;;;;;14.00;9.10;;;;;;;3.35;61.60;98204.60;235307;1192;139415;-72
2023/03/05 20:28:24;;;;;;;13.10;8.90;;;;;;;3.33;61.25;98201.19;235385;1193;138868;-69
2023/03/05 20:33:28;;;;;;;13.70;8.70;;;;;;;3.31;61.58;98195.81;235367;1195;139844;-69
2023/03/05 20:38:32;;;;;;;14.00;8.90;;;;;;;3.34;61.18;98196.42;235322;1193;138948;-69
2023/03/05 20:43:40;;;;;;;13.30;8.20;;;;;;;3.37;60.46;98192.60;235276;1194;141082;-71
2023/03/05 20:48:43;;;;;;;16.30;9.40;;;;;;;3.39;60.22;98192.65;235323;1193;138707;-70
2023/03/05 20:53:46;;;;;;;14.20;8.70;;;;;;;3.43;60.31;98184.05;235195;1193;138591;-70
2023/03/05 20:58:50;;;;;;;10.80;7.80;;;;;;;3.38;60.05;98186.06;235399;1193;138926;-69
2023/03/05 21:03:55;;;;;;;14.30;8.40;;;;;;;3.32;60.30;98183.36;235262;1197;139164;-70
2023/03/05 21:08:59;;;;;;;11.80;7.30;;;;;;;3.36;60.37;98178.29;235209;1193;140407;-70
2023/03/05 21:14:03;;;;;;;13.20;7.60;;;;;;;3.29;60.51;98179.29;235162;1193;138894;-70
2023/03/05 21:19:06;;;;;;;12.20;7.70;;;;;;;3.22;60.91;98181.02;235399;1193;141507;-70
2023/03/05 21:24:11;;;;;;;10.10;7.50;;;;;;;3.16;61.44;98183.05;235324;1191;139089;-69
2023/03/05 21:29:14;;;;;;;12.90;7.30;;;;;;;3.05;61.87;98181.96;235542;1192;138748;-70
2023/03/05 21:34:18;;;;;;;14.00;8.00;;;;;;;2.97;62.80;98171.45;235243;1193;139076;-69
2023/03/05 21:39:22;;;;;;;12.60;7.50;;;;;;;2.89;63.16;98168.31;235283;1192;138790;-70
2023/03/05 21:44:25;;;;;;;14.10;7.90;;;;;;;2.81;63.49;98165.19;235245;1192;139225;-70
2023/03/05 21:49:28;;;;;;;12.80;7.40;;;;;;;2.75;63.79;98170.71;235317;1196;139266;-69
2023/03/05 21:54:31;;;;;;;14.50;7.00;;;;;;;2.77;63.82;98160.09;235393;1192;138530;-69
2023/03/05 21:59:37;;;;;;;12.60;7.30;;;;;;;2.79;63.89;98151.41;235306;1193;138745;-71
2023/03/05 22:04:40;;;;;;;;;;;;;;;2.80;63.85;98152.79;233480;1193;140035;-69
2023/03/05 22:09:44;;;;;;;12.80;7.00;;;;;;;2.83;64.13;98157.05;235303;1193;125442;-69
2023/03/05 22:14:48;;;;;;;13.50;7.40;;;;;;;2.83;64.31;98146.15;233624;1193;138958;-71
2023/03/05 22:19:51;;;;;;;11.60;6.80;;;;;;;2.83;64.59;98142.51;235385;1193;138549;-70
2023/03/05 22:24:54;;;;;;;11.00;6.80;;;;;;;2.80;64.71;98145.63;235362;1193;138657;-70
2023/03/05 22:29:57;;;;;;;12.40;6.60;;;;;;;2.76;64.85;98140.87;234605;1193;138086;-70
2023/03/05 22:35:02;;;;;;;14.00;6.60;;;;;;;2.73;65.33;98134.73;231060;1194;138013;-73
2023/03/05 22:40:18;;;;;;;9.80;6.30;;;;;;;2.68;65.65;98131.65;235399;1193;139036;-70
2023/03/05 22:45:21;;;;;;;9.90;6.30;;;;;;;2.67;65.88;98134.13;235396;1192;139046;-70
2023/03/05 22:50:24;;;;;;;10.70;6.60;;;;;;;2.58;65.95;98132.94;235340;1194;138422;-70
2023/03/05 22:55:28;;;;;;;8.60;6.00;;;;;;;2.58;66.13;98131.52;235576;1193;138154;-71
2023/03/05 23:00:31;;;;;;;10.80;6.60;;;;;;;2.53;66.40;98144.36;235319;1193;138540;-70
2023/03/05 23:05:39;;;;;;;8.40;6.20;;;;;;;2.53;66.59;98133.88;235431;1192;138887;-71
2023/03/05 23:10:42;;;;;;;11.60;7.00;;;;;;;2.51;66.47;98132.00;235549;1193;139376;-72
2023/03/05 23:15:46;;;;;;;10.20;6.70;;;;;;;2.51;66.71;98128.34;235508;1192;139465;-71
2023/03/05 23:20:52;;;;;;;11.00;7.30;;;;;;;2.54;66.68;98126.09;235479;1192;139452;-71
2023/03/05 23:25:55;;;;;;;;;;;;;;;2.60;66.82;98119.91;235597;1193;139637;-71
2023/03/05 23:30:58;;;;;;;12.40;7.90;;;;;;;2.69;66.30;98116.52;235468;1195;124644;-72